sensor_id;sensor_type;location;lat;lon;timestamp;pressure;altitude;pressure_sealevel;temperature;humidity
60373;BME280;46216;52.220;5.134;2023-02-28T00:00:15;103372.78;;;2.91;100.00
60373;BME280;46216;52.220;5.134;2023-02-28T00:02:41;103371.06;;;2.96;100.00
60373;BME280;46216;52.220;5.134;2023-02-28T00:05:08;103368.41;;;3.00;100.00
60373;BME280;46216;52.220;5.134;2023-02-28T00:07:34;103372.81;;;3.03;100.00
60373;BME280;46216;52.220;5.134;2023-02-28T00:10:00;103369.28;;;3.07;100.00
60373;BME280;46216;52.220;5.134;2023-02-28T00:12:25;103362.25;;;3.07;100.00
60373;BME280;46216;52.220;5.134;2023-02-28T00:14:51;103372.78;;;3.12;100.00
60373;BME280;46216;52.220;5.134;2023-02-28T00:17:16;103381.53;;;3.16;100.00
60373;BME280;46216;52.220;5.134;2023-02-28T00:19:49;103374.50;;;3.19;100.00
60373;BME280;46216;52.220;5.134;2023-02-28T00:22:16;103369.25;;;3.19;100.00
60373;BME280;46216;52.220;5.134;2023-02-28T00:24:42;103377.16;;;3.24;100.00
60373;BME280;46216;52.220;5.134;2023-02-28T00:27:07;103372.75;;;3.27;100.00
60373;BME280;46216;52.220;5.134;2023-02-28T00:29:32;103369.25;;;3.31;100.00
60373;BME280;46216;52.220;5.134;2023-02-28T00:31:58;103369.22;;;3.35;100.00
60373;BME280;46216;52.220;5.134;2023-02-28T00:34:23;103372.75;;;3.40;100.00
60373;BME280;46216;52.220;5.134;2023-02-28T00:36:48;103372.75;;;3.44;100.00
60373;BME280;46216;52.220;5.134;2023-02-28T00:39:14;103371.84;;;3.50;100.00
60373;BME280;46216;52.220;5.134;2023-02-28T00:41:39;103368.31;;;3.52;100.00
60373;BME280;46216;52.220;5.134;2023-02-28T00:44:04;103367.41;;;3.56;100.00
60373;BME280;46216;52.220;5.134;2023-02-28T00:46:31;103363.91;;;3.59;100.00
60373;BME280;46216;52.220;5.134;2023-02-28T00:48:56;103367.41;;;3.60;100.00
60373;BME280;46216;52.220;5.134;2023-02-28T00:51:21;103364.78;;;3.61;100.00
60373;BME280;46216;52.220;5.134;2023-02-28T00:53:48;103370.03;;;3.60;100.00
60373;BME280;46216;52.220;5.134;2023-02-28T00:56:13;103363.91;;;3.61;100.00
60373;BME280;46216;52.220;5.134;2023-02-28T00:58:39;103372.69;;;3.61;100.00
60373;BME280;46216;52.220;5.134;2023-02-28T01:01:05;103365.63;;;3.63;100.00
60373;BME280;46216;52.220;5.134;2023-02-28T01:03:30;103366.53;;;3.65;100.00
60373;BME280;46216;52.220;5.134;2023-02-28T01:05:56;103365.66;;;3.68;100.00
60373;BME280;46216;52.220;5.134;2023-02-28T01:08:21;103365.63;;;3.66;100.00
60373;BME280;46216;52.220;5.134;2023-02-28T01:10:47;103371.81;;;3.64;100.00
60373;BME280;46216;52.220;5.134;2023-02-28T01:13:13;103375.31;;;3.64;100.00
60373;BME280;46216;52.220;5.134;2023-02-28T01:15:45;103373.56;;;3.63;100.00
60373;BME280;46216;52.220;5.134;2023-02-28T01:18:13;103380.59;;;3.61;100.00
60373;BME280;46216;52.220;5.134;2023-02-28T01:20:39;103370.94;;;3.60;100.00
60373;BME280;46216;52.220;5.134;2023-02-28T01:23:05;103371.81;;;3.61;100.00
60373;BME280;46216;52.220;5.134;2023-02-28T01:25:30;103365.63;;;3.63;100.00
60373;BME280;46216;52.220;5.134;2023-02-28T01:27:55;103370.03;;;3.67;100.00
60373;BME280;46216;52.220;5.134;2023-02-28T01:30:21;103365.63;;;3.69;100.00
60373;BME280;46216;52.220;5.134;2023-02-28T01:32:46;103363.88;;;3.71;100.00
60373;BME280;46216;52.220;5.134;2023-02-28T01:35:12;103352.44;;;3.71;100.00
60373;BME280;46216;52.220;5.134;2023-02-28T01:37:37;103362.06;;;3.76;100.00
60373;BME280;46216;52.220;5.134;2023-02-28T01:40:03;103353.31;;;3.77;100.00
60373;BME280;46216;52.220;5.134;2023-02-28T01:42:28;103349.75;;;3.80;100.00
60373;BME280;46216;52.220;5.134;2023-02-28T01:47:36;103340.97;;;3.83;100.00
60373;BME280;46216;52.220;5.134;2023-02-28T01:50:06;103358.53;;;3.87;100.00
60373;BME280;46216;52.220;5.134;2023-02-28T01:52:33;103348.84;;;3.87;100.00
60373;BME280;46216;52.220;5.134;2023-02-28T01:55:00;103353.22;;;3.90;100.00
60373;BME280;46216;52.220;5.134;2023-02-28T01:57:38;103353.22;;;3.93;100.00
60373;BME280;46216;52.220;5.134;2023-02-28T02:00:13;103348.81;;;3.95;100.00
60373;BME280;46216;52.220;5.134;2023-02-28T02:02:41;103342.66;;;3.93;100.00
60373;BME280;46216;52.220;5.134;2023-02-28T02:05:12;103346.19;;;3.92;100.00
60373;BME280;46216;52.220;5.134;2023-02-28T02:07:40;103339.13;;;3.94;100.00
60373;BME280;46216;52.220;5.134;2023-02-28T02:18:14;103327.72;;;3.98;100.00
60373;BME280;46216;52.220;5.134;2023-02-28T02:26:29;103330.34;;;4.01;100.00
60373;BME280;46216;52.220;5.134;2023-02-28T02:35:12;103327.69;;;4.01;100.00
60373;BME280;46216;52.220;5.134;2023-02-28T02:37:52;103328.56;;;4.01;100.00
60373;BME280;46216;52.220;5.134;2023-02-28T02:40:22;103331.19;;;4.03;100.00
60373;BME280;46216;52.220;5.134;2023-02-28T02:45:31;103329.44;;;4.05;100.00
60373;BME280;46216;52.220;5.134;2023-02-28T02:48:01;103323.25;;;4.03;100.00
60373;BME280;46216;52.220;5.134;2023-02-28T02:50:50;103325.00;;;4.07;100.00
60373;BME280;46216;52.220;5.134;2023-02-28T02:53:18;103334.69;;;4.11;100.00
60373;BME280;46216;52.220;5.134;2023-02-28T02:55:48;103335.53;;;4.10;100.00
60373;BME280;46216;52.220;5.134;2023-02-28T02:58:22;103332.06;;;4.08;100.00
60373;BME280;46216;52.220;5.134;2023-02-28T03:00:53;103333.78;;;4.09;100.00
60373;BME280;46216;52.220;5.134;2023-02-28T03:03:20;103326.75;;;4.11;100.00
60373;BME280;46216;52.220;5.134;2023-02-28T03:05:54;103335.53;;;4.10;100.00
60373;BME280;46216;52.220;5.134;2023-02-28T03:08:20;103337.31;;;4.10;100.00
60373;BME280;46216;52.220;5.134;2023-02-28T03:10:51;103334.69;;;4.11;100.00
60373;BME280;46216;52.220;5.134;2023-02-28T03:16:34;103336.47;;;4.08;100.00
60373;BME280;46216;52.220;5.134;2023-02-28T03:19:31;103333.81;;;4.06;100.00
60373;BME280;46216;52.220;5.134;2023-02-28T03:22:12;103322.38;;;4.09;100.00
60373;BME280;46216;52.220;5.134;2023-02-28T03:24:52;103319.72;;;4.12;100.00
60373;BME280;46216;52.220;5.134;2023-02-28T03:27:27;103323.22;;;4.15;100.00
60373;BME280;46216;52.220;5.134;2023-02-28T03:30:03;103323.19;;;4.14;100.00
60373;BME280;46216;52.220;5.134;2023-02-28T03:32:35;103318.81;;;4.16;100.00
60373;BME280;46216;52.220;5.134;2023-02-28T03:35:07;103325.84;;;4.18;100.00
60373;BME280;46216;52.220;5.134;2023-02-28T03:37:37;103330.19;;;4.21;100.00
60373;BME280;46216;52.220;5.134;2023-02-28T03:40:10;103327.56;;;4.22;100.00
60373;BME280;46216;52.220;5.134;2023-02-28T03:42:39;103323.19;;;4.18;100.00
60373;BME280;46216;52.220;5.134;2023-02-28T03:45:19;103330.22;;;4.19;100.00
60373;BME280;46216;52.220;5.134;2023-02-28T03:48:02;103337.22;;;4.23;100.00
60373;BME280;46216;52.220;5.134;2023-02-28T03:50:43;103340.75;;;4.25;100.00
60373;BME280;46216;52.220;5.134;2023-02-28T03:53:16;103336.38;;;4.21;100.00
60373;BME280;46216;52.220;5.134;2023-02-28T03:56:16;103337.22;;;4.23;100.00
60373;BME280;46216;52.220;5.134;2023-02-28T03:58:57;103328.41;;;4.24;100.00
60373;BME280;46216;52.220;5.134;2023-02-28T04:01:33;103334.56;;;4.28;100.00
60373;BME280;46216;52.220;5.134;2023-02-28T04:04:01;103320.53;;;4.21;100.00
60373;BME280;46216;52.220;5.134;2023-02-28T04:06:27;103324.91;;;4.25;100.00
60373;BME280;46216;52.220;5.134;2023-02-28T04:08:55;103322.22;;;4.30;100.00
60373;BME280;46216;52.220;5.134;2023-02-28T04:14:01;103323.94;;;4.34;100.00
60373;BME280;46216;52.220;5.134;2023-02-28T04:16:27;103338.91;;;4.37;100.00
60373;BME280;46216;52.220;5.134;2023-02-28T04:18:53;103334.50;;;4.34;100.00
60373;BME280;46216;52.220;5.134;2023-02-28T04:21:18;103339.78;;;4.34;100.00
60373;BME280;46216;52.220;5.134;2023-02-28T04:23:47;103338.94;;;4.31;100.00
60373;BME280;46216;52.220;5.134;2023-02-28T04:26:12;103340.72;;;4.29;100.00
60373;BME280;46216;52.220;5.134;2023-02-28T04:28:38;103349.50;;;4.27;100.00
60373;BME280;46216;52.220;5.134;2023-02-28T04:31:04;103342.47;;;4.30;100.00
60373;BME280;46216;52.220;5.134;2023-02-28T04:33:31;103336.38;;;4.17;100.00
60373;BME280;46216;52.220;5.134;2023-02-28T04:36:14;103341.66;;;4.17;100.00
60373;BME280;46216;52.220;5.134;2023-02-28T04:38:43;103335.53;;;4.13;100.00
60373;BME280;46216;52.220;5.134;2023-02-28T04:41:09;103334.69;;;4.11;100.00
60373;BME280;46216;52.220;5.134;2023-02-28T04:43:34;103342.53;;;4.14;100.00
60373;BME280;46216;52.220;5.134;2023-02-28T04:46:02;103342.59;;;4.11;100.00
60373;BME280;46216;52.220;5.134;2023-02-28T04:48:28;103342.59;;;4.08;100.00
60373;BME280;46216;52.220;5.134;2023-02-28T04:50:54;103344.34;;;4.09;100.00
60373;BME280;46216;52.220;5.134;2023-02-28T04:53:20;103345.25;;;4.08;100.00
60373;BME280;46216;52.220;5.134;2023-02-28T04:55:46;103334.69;;;4.03;100.00
60373;BME280;46216;52.220;5.134;2023-02-28T04:58:13;103347.00;;;4.03;100.00
60373;BME280;46216;52.220;5.134;2023-02-28T05:00:39;103344.38;;;4.00;100.00
60373;BME280;46216;52.220;5.134;2023-02-28T05:03:04;103346.16;;;4.01;100.00
60373;BME280;46216;52.220;5.134;2023-02-28T05:05:30;103335.63;;;4.01;100.00
60373;BME280;46216;52.220;5.134;2023-02-28T05:07:55;103335.63;;;3.98;100.00
60373;BME280;46216;52.220;5.134;2023-02-28T05:10:24;103335.63;;;3.95;100.00
60373;BME280;46216;52.220;5.134;2023-02-28T05:12:49;103342.66;;;3.93;100.00
60373;BME280;46216;52.220;5.134;2023-02-28T05:15:16;103340.94;;;3.92;100.00
60373;BME280;46216;52.220;5.134;2023-02-28T05:17:41;103347.09;;;3.89;100.00
60373;BME280;46216;52.220;5.134;2023-02-28T05:20:09;103333.97;;;3.75;100.00
60373;BME280;46216;52.220;5.134;2023-02-28T05:22:36;103334.84;;;3.71;100.00
60373;BME280;46216;52.220;5.134;2023-02-28T05:25:03;103334.84;;;3.71;100.00
60373;BME280;46216;52.220;5.134;2023-02-28T05:27:29;103337.50;;;3.68;100.00
60373;BME280;46216;52.220;5.134;2023-02-28T05:29:55;103340.19;;;3.61;100.00
60373;BME280;46216;52.220;5.134;2023-02-28T05:32:21;103337.53;;;3.62;100.00
60373;BME280;46216;52.220;5.134;2023-02-28T05:34:46;103335.78;;;3.61;100.00
60373;BME280;46216;52.220;5.134;2023-02-28T05:37:12;103341.06;;;3.61;100.00
60373;BME280;46216;52.220;5.134;2023-02-28T05:39:38;103344.59;;;3.60;100.00
60373;BME280;46216;52.220;5.134;2023-02-28T05:42:04;103348.94;;;3.56;100.00
60373;BME280;46216;52.220;5.134;2023-02-28T05:44:29;103348.06;;;3.59;100.00
60373;BME280;46216;52.220;5.134;2023-02-28T05:46:54;103338.44;;;3.55;100.00
60373;BME280;46216;52.220;5.134;2023-02-28T05:49:20;103341.94;;;3.55;100.00
60373;BME280;46216;52.220;5.134;2023-02-28T05:51:45;103341.09;;;3.53;100.00
60373;BME280;46216;52.220;5.134;2023-02-28T05:54:10;103348.97;;;3.52;100.00
60373;BME280;46216;52.220;5.134;2023-02-28T05:56:36;103341.97;;;3.48;100.00
60373;BME280;46216;52.220;5.134;2023-02-28T05:59:04;103337.56;;;3.51;100.00
60373;BME280;46216;52.220;5.134;2023-02-28T06:01:39;103353.41;;;3.50;100.00
60373;BME280;46216;52.220;5.134;2023-02-28T06:04:07;103355.19;;;3.43;100.00
60373;BME280;46216;52.220;5.134;2023-02-28T06:06:33;103349.00;;;3.41;100.00
60373;BME280;46216;52.220;5.134;2023-02-28T06:09:05;103349.91;;;3.39;100.00
60373;BME280;46216;52.220;5.134;2023-02-28T06:11:31;103349.91;;;3.37;100.00
60373;BME280;46216;52.220;5.134;2023-02-28T06:13:58;103348.16;;;3.28;100.00
60373;BME280;46216;52.220;5.134;2023-02-28T06:16:25;103356.09;;;3.24;100.00
60373;BME280;46216;52.220;5.134;2023-02-28T06:18:51;103359.63;;;3.17;100.00
60373;BME280;46216;52.220;5.134;2023-02-28T06:21:18;103362.22;;;3.12;100.00
60373;BME280;46216;52.220;5.134;2023-02-28T06:23:43;103356.09;;;3.05;100.00
60373;BME280;46216;52.220;5.134;2023-02-28T06:26:09;103362.25;;;3.00;100.00
60373;BME280;46216;52.220;5.134;2023-02-28T06:28:34;103362.25;;;2.98;100.00
60373;BME280;46216;52.220;5.134;2023-02-28T06:31:05;103368.41;;;2.91;100.00
60373;BME280;46216;52.220;5.134;2023-02-28T06:33:31;103357.88;;;2.82;100.00
60373;BME280;46216;52.220;5.134;2023-02-28T06:35:57;103369.28;;;2.78;100.00
60373;BME280;46216;52.220;5.134;2023-02-28T06:38:22;103371.00;;;2.71;100.00
60373;BME280;46216;52.220;5.134;2023-02-28T06:40:55;103377.16;;;2.59;100.00
60373;BME280;46216;52.220;5.134;2023-02-28T06:43:21;103376.25;;;2.50;100.00
60373;BME280;46216;52.220;5.134;2023-02-28T06:45:46;103378.00;;;2.42;100.00
60373;BME280;46216;52.220;5.134;2023-02-28T06:48:11;103389.41;;;2.34;100.00
60373;BME280;46216;52.220;5.134;2023-02-28T06:50:37;103394.63;;;2.30;100.00
60373;BME280;46216;52.220;5.134;2023-02-28T06:53:03;103402.53;;;2.28;100.00
60373;BME280;46216;52.220;5.134;2023-02-28T06:55:28;103398.13;;;2.23;100.00
60373;BME280;46216;52.220;5.134;2023-02-28T06:57:53;103406.03;;;2.21;100.00
60373;BME280;46216;52.220;5.134;2023-02-28T07:00:20;103400.72;;;2.17;100.00
60373;BME280;46216;52.220;5.134;2023-02-28T07:02:46;103407.75;;;2.16;100.00
60373;BME280;46216;52.220;5.134;2023-02-28T07:05:12;103406.00;;;2.15;100.00
60373;BME280;46216;52.220;5.134;2023-02-28T07:07:38;103404.22;;;2.12;100.00
60373;BME280;46216;52.220;5.134;2023-02-28T07:10:06;103413.91;;;2.18;100.00
60373;BME280;46216;52.220;5.134;2023-02-28T07:12:32;103414.75;;;2.17;100.00
60373;BME280;46216;52.220;5.134;2023-02-28T07:14:57;103413.03;;;2.15;100.00
60373;BME280;46216;52.220;5.134;2023-02-28T07:17:22;103420.03;;;2.14;100.00
60373;BME280;46216;52.220;5.134;2023-02-28T07:19:48;103425.28;;;2.16;100.00
60373;BME280;46216;52.220;5.134;2023-02-28T07:22:13;103419.16;;;2.15;100.00
60373;BME280;46216;52.220;5.134;2023-02-28T07:24:38;103420.00;;;2.12;100.00
60373;BME280;46216;52.220;5.134;2023-02-28T07:27:04;103420.03;;;2.14;100.00
60373;BME280;46216;52.220;5.134;2023-02-28T07:29:29;103416.50;;;2.09;100.00
60373;BME280;46216;52.220;5.134;2023-02-28T07:31:55;103427.00;;;2.09;100.00
60373;BME280;46216;52.220;5.134;2023-02-28T07:34:21;103421.75;;;2.09;100.00
60373;BME280;46216;52.220;5.134;2023-02-28T07:36:46;103428.75;;;2.05;100.00
60373;BME280;46216;52.220;5.134;2023-02-28T07:39:12;103421.72;;;2.00;100.00
60373;BME280;46216;52.220;5.134;2023-02-28T07:41:37;103415.56;;;1.99;100.00
60373;BME280;46216;52.220;5.134;2023-02-28T07:44:09;103418.22;;;2.01;100.00
60373;BME280;46216;52.220;5.134;2023-02-28T07:46:34;103413.81;;;1.98;100.00
60373;BME280;46216;52.220;5.134;2023-02-28T07:49:01;103426.13;;;2.04;100.00
60373;BME280;46216;52.220;5.134;2023-02-28T07:51:29;103419.97;;;2.02;100.00
60373;BME280;46216;52.220;5.134;2023-02-28T07:53:55;103414.72;;;2.05;100.00
60373;BME280;46216;52.220;5.134;2023-02-28T07:56:20;103411.25;;;2.12;100.00
60373;BME280;46216;52.220;5.134;2023-02-28T07:58:45;103410.34;;;2.10;100.00
60373;BME280;46216;52.220;5.134;2023-02-28T08:01:11;103428.81;;;2.19;100.00
60373;BME280;46216;52.220;5.134;2023-02-28T08:03:37;103422.66;;;2.20;100.00
60373;BME280;46216;52.220;5.134;2023-02-28T08:06:04;103420.94;;;2.22;100.00
60373;BME280;46216;52.220;5.134;2023-02-28T08:08:30;103427.09;;;2.30;100.00
60373;BME280;46216;52.220;5.134;2023-02-28T08:11:00;103427.13;;;2.38;100.00
60373;BME280;46216;52.220;5.134;2023-02-28T08:13:27;103420.13;;;2.42;100.00
60373;BME280;46216;52.220;5.134;2023-02-28T08:15:54;103414.00;;;2.46;100.00
60373;BME280;46216;52.220;5.134;2023-02-28T08:18:20;103432.44;;;2.55;100.00
60373;BME280;46216;52.220;5.134;2023-02-28T08:20:45;103435.09;;;2.55;100.00
60373;BME280;46216;52.220;5.134;2023-02-28T08:23:11;103433.34;;;2.58;100.00
60373;BME280;46216;52.220;5.134;2023-02-28T08:25:36;103435.06;;;2.61;100.00
60373;BME280;46216;52.220;5.134;2023-02-28T08:28:01;103432.44;;;2.61;100.00
60373;BME280;46216;52.220;5.134;2023-02-28T08:30:27;103428.94;;;2.62;100.00
60373;BME280;46216;52.220;5.134;2023-02-28T08:32:52;103435.06;;;2.64;100.00
60373;BME280;46216;52.220;5.134;2023-02-28T08:35:17;103431.59;;;2.65;100.00
60373;BME280;46216;52.220;5.134;2023-02-28T08:37:43;103436.84;;;2.64;100.00
60373;BME280;46216;52.220;5.134;2023-02-28T08:40:08;103433.31;;;2.60;100.00
60373;BME280;46216;52.220;5.134;2023-02-28T08:42:34;103431.59;;;2.62;100.00
60373;BME280;46216;52.220;5.134;2023-02-28T08:45:00;103433.31;;;2.65;100.00
60373;BME280;46216;52.220;5.134;2023-02-28T08:47:28;103435.13;;;2.72;100.00
60373;BME280;46216;52.220;5.134;2023-02-28T08:49:53;103432.47;;;2.70;100.00
60373;BME280;46216;52.220;5.134;2023-02-28T08:52:19;103437.75;;;2.73;100.00
60373;BME280;46216;52.220;5.134;2023-02-28T08:54:44;103431.63;;;2.79;100.00
60373;BME280;46216;52.220;5.134;2023-02-28T08:57:09;103429.00;;;2.90;100.00
60373;BME280;46216;52.220;5.134;2023-02-28T08:59:35;103436.91;;;2.97;100.00
60373;BME280;46216;52.220;5.134;2023-02-28T09:02:00;103430.72;;;3.09;100.00
60373;BME280;46216;52.220;5.134;2023-02-28T09:04:25;103429.00;;;3.23;100.00
60373;BME280;46216;52.220;5.134;2023-02-28T09:06:51;103439.53;;;3.36;100.00
60373;BME280;46216;52.220;5.134;2023-02-28T09:09:16;103427.22;;;3.41;100.00
60373;BME280;46216;52.220;5.134;2023-02-28T09:11:41;103438.66;;;3.53;100.00
60373;BME280;46216;52.220;5.134;2023-02-28T09:14:07;103435.09;;;3.62;100.00
60373;BME280;46216;52.220;5.134;2023-02-28T09:16:33;103431.59;;;3.65;100.00
60373;BME280;46216;52.220;5.134;2023-02-28T09:18:59;103440.34;;;3.77;100.00
60373;BME280;46216;52.220;5.134;2023-02-28T09:21:25;103441.22;;;3.76;100.00
60373;BME280;46216;52.220;5.134;2023-02-28T09:23:51;103440.34;;;3.79;100.00
60373;BME280;46216;52.220;5.134;2023-02-28T09:26:26;103435.94;;;3.73;100.00
60373;BME280;46216;52.220;5.134;2023-02-28T09:28:52;103432.44;;;3.74;100.00
60373;BME280;46216;52.220;5.134;2023-02-28T09:31:25;103422.78;;;3.70;100.00
60373;BME280;46216;52.220;5.134;2023-02-28T09:33:52;103436.78;;;3.83;100.00
60373;BME280;46216;52.220;5.134;2023-02-28T09:36:22;103442.09;;;3.88;100.00
60373;BME280;46216;52.220;5.134;2023-02-28T09:38:48;103428.00;;;3.89;100.00
60373;BME280;46216;52.220;5.134;2023-02-28T09:43:46;103434.13;;;3.98;100.00
60373;BME280;46216;52.220;5.134;2023-02-28T09:46:21;103434.09;;;4.03;100.00
60373;BME280;46216;52.220;5.134;2023-02-28T09:48:51;103430.59;;;4.01;100.00
60373;BME280;46216;52.220;5.134;2023-02-28T09:51:38;103431.47;;;4.01;100.00
60373;BME280;46216;52.220;5.134;2023-02-28T09:54:05;103427.94;;;4.09;100.00
60373;BME280;46216;52.220;5.134;2023-02-28T09:56:39;103434.94;;;4.16;100.00
60373;BME280;46216;52.220;5.134;2023-02-28T10:01:50;103435.81;;;4.19;100.00
60373;BME280;46216;52.220;5.134;2023-02-28T10:06:54;103426.91;;;4.42;100.00
60373;BME280;46216;52.220;5.134;2023-02-28T10:09:25;103424.22;;;4.49;100.00
60373;BME280;46216;52.220;5.134;2023-02-28T10:11:53;103428.53;;;4.58;100.00
60373;BME280;46216;52.220;5.134;2023-02-28T10:14:23;103411.78;;;4.65;100.00
60373;BME280;46216;52.220;5.134;2023-02-28T10:17:02;103424.13;;;4.60;100.00
60373;BME280;46216;52.220;5.134;2023-02-28T10:22:22;103413.53;;;4.66;100.00
60373;BME280;46216;52.220;5.134;2023-02-28T10:24:53;103408.19;;;4.74;100.00
60373;BME280;46216;52.220;5.134;2023-02-28T10:27:29;103428.28;;;4.95;100.00
60373;BME280;46216;52.220;5.134;2023-02-28T10:30:00;103418.56;;;5.02;100.00
60373;BME280;46216;52.220;5.134;2023-02-28T10:32:32;103396.44;;;5.12;100.00
60373;BME280;46216;52.220;5.134;2023-02-28T10:35:19;103396.34;;;5.22;100.00
60373;BME280;46216;52.220;5.134;2023-02-28T10:37:49;103383.91;;;5.34;100.00
60373;BME280;46216;52.220;5.134;2023-02-28T10:40:28;103389.09;;;5.43;100.00
60373;BME280;46216;52.220;5.134;2023-02-28T10:43:01;103399.56;;;5.55;100.00
60373;BME280;46216;52.220;5.134;2023-02-28T10:45:28;103392.44;;;5.60;100.00
60373;BME280;46216;52.220;5.134;2023-02-28T10:47:57;103390.50;;;5.78;100.00
60373;BME280;46216;52.220;5.134;2023-02-28T10:53:07;103374.53;;;5.85;100.00
60373;BME280;46216;52.220;5.134;2023-02-28T10:55:33;103376.16;;;5.97;100.00
60373;BME280;46216;52.220;5.134;2023-02-28T10:57:59;103377.09;;;5.90;100.00
60373;BME280;46216;52.220;5.134;2023-02-28T11:00:25;103369.97;;;6.00;100.00
60373;BME280;46216;52.220;5.134;2023-02-28T11:02:51;103366.31;;;6.07;100.00
60373;BME280;46216;52.220;5.134;2023-02-28T11:05:30;103358.34;;;6.11;100.00
60373;BME280;46216;52.220;5.134;2023-02-28T11:08:24;103346.56;;;6.31;100.00
60373;BME280;46216;52.220;5.134;2023-02-28T11:10:55;103352.44;;;6.51;100.00
60373;BME280;46216;52.220;5.134;2023-02-28T11:13:33;103330.16;;;6.64;100.00
60373;BME280;46216;52.220;5.134;2023-02-28T11:16:02;103342.94;;;6.92;100.00
60373;BME280;46216;52.220;5.134;2023-02-28T11:18:39;103339.50;;;6.87;100.00
60373;BME280;46216;52.220;5.134;2023-02-28T11:21:06;103335.56;;;7.09;100.00
60373;BME280;46216;52.220;5.134;2023-02-28T11:23:35;103328.59;;;7.52;100.00
60373;BME280;46216;52.220;5.134;2023-02-28T11:26:03;103323.63;;;7.77;100.00
60373;BME280;46216;52.220;5.134;2023-02-28T11:33:54;103310.53;;;8.10;100.00
60373;BME280;46216;52.220;5.134;2023-02-28T11:36:29;103307.94;;;8.45;100.00
60373;BME280;46216;52.220;5.134;2023-02-28T11:38:58;103314.63;;;8.63;100.00
60373;BME280;46216;52.220;5.134;2023-02-28T11:44:23;103290.41;;;8.74;99.50
60373;BME280;46216;52.220;5.134;2023-02-28T11:49:41;103304.06;;;8.94;95.93
60373;BME280;46216;52.220;5.134;2023-02-28T11:52:34;103297.75;;;8.98;92.18
60373;BME280;46216;52.220;5.134;2023-02-28T11:55:11;103297.75;;;8.98;88.73
60373;BME280;46216;52.220;5.134;2023-02-28T12:06:01;103278.44;;;9.24;82.06
60373;BME280;46216;52.220;5.134;2023-02-28T12:08:59;103277.63;;;9.21;79.02
60373;BME280;46216;52.220;5.134;2023-02-28T12:11:33;103290.88;;;9.54;83.41
60373;BME280;46216;52.220;5.134;2023-02-28T12:14:25;103282.88;;;9.24;84.58
60373;BME280;46216;52.220;5.134;2023-02-28T12:19:55;103271.94;;;9.33;81.96
60373;BME280;46216;52.220;5.134;2023-02-28T12:27:38;103279.53;;;9.47;80.11
60373;BME280;46216;52.220;5.134;2023-02-28T12:30:26;103271.22;;;9.28;73.49
60373;BME280;46216;52.220;5.134;2023-02-28T12:33:04;103273.16;;;9.53;75.30
60373;BME280;46216;52.220;5.134;2023-02-28T12:35:37;103275.22;;;9.43;73.79
60373;BME280;46216;52.220;5.134;2023-02-28T12:38:18;103271.88;;;9.36;67.54
60373;BME280;46216;52.220;5.134;2023-02-28T12:41:08;103264.94;;;9.31;66.23
60373;BME280;46216;52.220;5.134;2023-02-28T12:43:41;103258.63;;;9.35;68.22
60373;BME280;46216;52.220;5.134;2023-02-28T12:46:19;103250.22;;;9.48;67.31
60373;BME280;46216;52.220;5.134;2023-02-28T12:48:49;103254.00;;;9.41;67.48
60373;BME280;46216;52.220;5.134;2023-02-28T12:51:16;103243.53;;;9.34;65.61
60373;BME280;46216;52.220;5.134;2023-02-28T12:54:00;103253.59;;;9.55;63.19
60373;BME280;46216;52.220;5.134;2023-02-28T12:56:42;103260.88;;;9.48;61.94
60373;BME280;46216;52.220;5.134;2023-02-28T12:59:22;103258.78;;;9.29;60.86
60373;BME280;46216;52.220;5.134;2023-02-28T13:05:12;103259.50;;;9.03;65.00
60373;BME280;46216;52.220;5.134;2023-02-28T13:10:46;103240.81;;;9.06;65.73
60373;BME280;46216;52.220;5.134;2023-02-28T13:13:18;103239.16;;;9.02;66.96
60373;BME280;46216;52.220;5.134;2023-02-28T13:16:06;103234.06;;;8.92;64.92
60373;BME280;46216;52.220;5.134;2023-02-28T13:18:34;103229.28;;;8.74;66.31
60373;BME280;46216;52.220;5.134;2023-02-28T13:21:03;103220.38;;;8.75;67.21
60373;BME280;46216;52.220;5.134;2023-02-28T13:24:03;103232.03;;;8.34;62.29
60373;BME280;46216;52.220;5.134;2023-02-28T13:31:30;103227.81;;;8.25;67.06
60373;BME280;46216;52.220;5.134;2023-02-28T13:34:13;103224.53;;;8.15;64.47
60373;BME280;46216;52.220;5.134;2023-02-28T13:36:38;103215.75;;;8.12;65.31
60373;BME280;46216;52.220;5.134;2023-02-28T13:42:36;103223.31;;;7.91;62.50
60373;BME280;46216;52.220;5.134;2023-02-28T13:47:54;103224.97;;;7.97;62.54
60373;BME280;46216;52.220;5.134;2023-02-28T13:53:08;103213.53;;;7.93;61.93
60373;BME280;46216;52.220;5.134;2023-02-28T14:06:37;103203.19;;;7.81;61.77
60373;BME280;46216;52.220;5.134;2023-02-28T14:11:45;103200.38;;;8.24;61.79
60373;BME280;46216;52.220;5.134;2023-02-28T14:17:07;103194.59;;;8.44;61.06
60373;BME280;46216;52.220;5.134;2023-02-28T14:19:36;103197.44;;;8.71;61.01
60373;BME280;46216;52.220;5.134;2023-02-28T14:27:49;103184.41;;;9.24;59.01
60373;BME280;46216;52.220;5.134;2023-02-28T14:33:18;103182.22;;;9.66;61.16
60373;BME280;46216;52.220;5.134;2023-02-28T14:36:13;103177.75;;;9.68;56.36
60373;BME280;46216;52.220;5.134;2023-02-28T14:38:48;103174.75;;;10.06;58.32
60373;BME280;46216;52.220;5.134;2023-02-28T14:41:21;103171.41;;;10.27;58.41
60373;BME280;46216;52.220;5.134;2023-02-28T14:43:58;103173.78;;;10.35;54.73
60373;BME280;46216;52.220;5.134;2023-02-28T14:46:28;103174.91;;;10.29;54.42
60373;BME280;46216;52.220;5.134;2023-02-28T14:48:55;103167.69;;;10.31;58.18
60373;BME280;46216;52.220;5.134;2023-02-28T14:51:23;103168.47;;;10.35;58.49
60373;BME280;46216;52.220;5.134;2023-02-28T14:53:52;103170.53;;;10.52;56.13
60373;BME280;46216;52.220;5.134;2023-02-28T14:56:24;103175.00;;;10.76;58.54
60373;BME280;46216;52.220;5.134;2023-02-28T14:58:52;103173.22;;;10.52;58.26